Winifred, Montana
Current Conditions -  °F | °C
As of 9:54 PM on Friday 19 Dec 2014 (Local Time) from KLWT Reporting Station
Overcast Overcast  
Wind Chill: 32°   Ceiling: 8000
Heat Index: 40°   Visibility: 10mi
Dew Point: 29°   Wind: 14mph
Humidity: 65%   Direction: 240°WSW
Pressure: 29.83"   Gusts: NA
Location:  47.56°N, 109.37°W
Report Text: KLWT 200454Z AUTO 24012KT 10SM BKN080 OVC110 04/M02 A2983 RMK AO2 SLP118 T00441017
Loading
Personal Weather Stations






























Interactive Weather Map New forecast layout! Learn more

10-Day Weather Forecast

Advertisements
Track Severe Weather on mobile